sensor_id;sensor_type;location;lat;lon;timestamp;P1;P2;P0
47079;PMS5003;33067;49.296;14.470;2023-02-28T00:02:09;23;23;
47079;PMS5003;33067;49.296;14.470;2023-02-28T00:04:35;22;18;
47079;PMS5003;33067;49.296;14.470;2023-02-28T00:07:00;14;14;
47079;PMS5003;33067;49.296;14.470;2023-02-28T00:09:26;16;16;
47079;PMS5003;33067;49.296;14.470;2023-02-28T00:11:51;19;19;
47079;PMS5003;33067;49.296;14.470;2023-02-28T00:14:17;21;21;
47079;PMS5003;33067;49.296;14.470;2023-02-28T00:16:43;21;17;
47079;PMS5003;33067;49.296;14.470;2023-02-28T00:19:08;22;18;
47079;PMS5003;33067;49.296;14.470;2023-02-28T00:21:33;23;19;
47079;PMS5003;33067;49.296;14.470;2023-02-28T00:23:59;27;24;
47079;PMS5003;33067;49.296;14.470;2023-02-28T00:26:24;17;17;
47079;PMS5003;33067;49.296;14.470;2023-02-28T00:28:51;25;22;
47079;PMS5003;33067;49.296;14.470;2023-02-28T00:31:15;23;21;
47079;PMS5003;33067;49.296;14.470;2023-02-28T00:33:41;18;15;
47079;PMS5003;33067;49.296;14.470;2023-02-28T00:36:08;18;18;
47079;PMS5003;33067;49.296;14.470;2023-02-28T00:38:32;22;19;
47079;PMS5003;33067;49.296;14.470;2023-02-28T00:40:57;25;22;
47079;PMS5003;33067;49.296;14.470;2023-02-28T00:43:23;19;19;
47079;PMS5003;33067;49.296;14.470;2023-02-28T00:45:49;21;18;
47079;PMS5003;33067;49.296;14.470;2023-02-28T00:48:14;15;15;
47079;PMS5003;33067;49.296;14.470;2023-02-28T00:50:40;23;21;
47079;PMS5003;33067;49.296;14.470;2023-02-28T00:53:05;32;27;
47079;PMS5003;33067;49.296;14.470;2023-02-28T00:55:31;19;17;
47079;PMS5003;33067;49.296;14.470;2023-02-28T00:57:56;17;17;
47079;PMS5003;33067;49.296;14.470;2023-02-28T01:00:22;24;19;
47079;PMS5003;33067;49.296;14.470;2023-02-28T01:02:47;26;25;
47079;PMS5003;33067;49.296;14.470;2023-02-28T01:05:13;24;23;
47079;PMS5003;33067;49.296;14.470;2023-02-28T01:07:38;26;21;
47079;PMS5003;33067;49.296;14.470;2023-02-28T01:10:04;23;20;
47079;PMS5003;33067;49.296;14.470;2023-02-28T01:12:28;23;23;
47079;PMS5003;33067;49.296;14.470;2023-02-28T01:14:53;22;18;
47079;PMS5003;33067;49.296;14.470;2023-02-28T01:17:19;22;20;
47079;PMS5003;33067;49.296;14.470;2023-02-28T01:19:44;20;18;
47079;PMS5003;33067;49.296;14.470;2023-02-28T01:22:10;26;25;
47079;PMS5003;33067;49.296;14.470;2023-02-28T01:24:36;22;22;
47079;PMS5003;33067;49.296;14.470;2023-02-28T01:27:01;18;18;
47079;PMS5003;33067;49.296;14.470;2023-02-28T01:29:26;26;22;
47079;PMS5003;33067;49.296;14.470;2023-02-28T01:31:52;23;22;
47079;PMS5003;33067;49.296;14.470;2023-02-28T01:34:17;22;20;
47079;PMS5003;33067;49.296;14.470;2023-02-28T01:36:42;15;14;
47079;PMS5003;33067;49.296;14.470;2023-02-28T01:39:08;27;24;
47079;PMS5003;33067;49.296;14.470;2023-02-28T01:41:34;27;27;
47079;PMS5003;33067;49.296;14.470;2023-02-28T01:44:00;17;17;
47079;PMS5003;33067;49.296;14.470;2023-02-28T01:46:24;25;18;
47079;PMS5003;33067;49.296;14.470;2023-02-28T01:48:50;19;17;
47079;PMS5003;33067;49.296;14.470;2023-02-28T01:51:16;23;23;
47079;PMS5003;33067;49.296;14.470;2023-02-28T01:53:41;25;25;
47079;PMS5003;33067;49.296;14.470;2023-02-28T01:56:07;22;18;
47079;PMS5003;33067;49.296;14.470;2023-02-28T01:58:32;29;25;
47079;PMS5003;33067;49.296;14.470;2023-02-28T02:00:58;25;22;
47079;PMS5003;33067;49.296;14.470;2023-02-28T02:03:23;24;23;
47079;PMS5003;33067;49.296;14.470;2023-02-28T02:05:49;24;20;
47079;PMS5003;33067;49.296;14.470;2023-02-28T02:08:15;27;23;
47079;PMS5003;33067;49.296;14.470;2023-02-28T02:10:40;34;32;
47079;PMS5003;33067;49.296;14.470;2023-02-28T02:13:10;19;17;
47079;PMS5003;33067;49.296;14.470;2023-02-28T02:15:32;22;19;
47079;PMS5003;33067;49.296;14.470;2023-02-28T02:17:56;25;23;
47079;PMS5003;33067;49.296;14.470;2023-02-28T02:20:29;28;23;
47079;PMS5003;33067;49.296;14.470;2023-02-28T02:22:55;29;29;
47079;PMS5003;33067;49.296;14.470;2023-02-28T02:25:16;30;26;
47079;PMS5003;33067;49.296;14.470;2023-02-28T02:27:45;21;19;
47079;PMS5003;33067;49.296;14.470;2023-02-28T02:34:56;22;19;
47079;PMS5003;33067;49.296;14.470;2023-02-28T02:37:24;23;22;
47079;PMS5003;33067;49.296;14.470;2023-02-28T02:39:48;23;19;
47079;PMS5003;33067;49.296;14.470;2023-02-28T02:42:13;27;22;
47079;PMS5003;33067;49.296;14.470;2023-02-28T02:44:37;23;22;
47079;PMS5003;33067;49.296;14.470;2023-02-28T02:47:02;22;20;
47079;PMS5003;33067;49.296;14.470;2023-02-28T02:49:28;23;19;
47079;PMS5003;33067;49.296;14.470;2023-02-28T02:51:52;27;24;
47079;PMS5003;33067;49.296;14.470;2023-02-28T02:54:17;26;22;
47079;PMS5003;33067;49.296;14.470;2023-02-28T02:56:42;19;19;
47079;PMS5003;33067;49.296;14.470;2023-02-28T02:59:09;25;23;
47079;PMS5003;33067;49.296;14.470;2023-02-28T03:01:33;26;20;
47079;PMS5003;33067;49.296;14.470;2023-02-28T03:04:00;21;19;
47079;PMS5003;33067;49.296;14.470;2023-02-28T03:06:24;24;22;
47079;PMS5003;33067;49.296;14.470;2023-02-28T03:08:50;27;22;
47079;PMS5003;33067;49.296;14.470;2023-02-28T03:13:03;27;25;
47079;PMS5003;33067;49.296;14.470;2023-02-28T03:15:26;21;17;
47079;PMS5003;33067;49.296;14.470;2023-02-28T03:17:54;22;22;
47079;PMS5003;33067;49.296;14.470;2023-02-28T03:20:17;26;23;
47079;PMS5003;33067;49.296;14.470;2023-02-28T03:22:45;22;22;
47079;PMS5003;33067;49.296;14.470;2023-02-28T03:25:07;26;26;
47079;PMS5003;33067;49.296;14.470;2023-02-28T03:27:34;30;28;
47079;PMS5003;33067;49.296;14.470;2023-02-28T03:29:59;35;30;
47079;PMS5003;33067;49.296;14.470;2023-02-28T03:32:24;26;22;
47079;PMS5003;33067;49.296;14.470;2023-02-28T03:34:50;30;29;
47079;PMS5003;33067;49.296;14.470;2023-02-28T03:37:15;21;21;
47079;PMS5003;33067;49.296;14.470;2023-02-28T03:39:40;23;23;
47079;PMS5003;33067;49.296;14.470;2023-02-28T03:42:06;22;21;
47079;PMS5003;33067;49.296;14.470;2023-02-28T03:44:32;22;20;
47079;PMS5003;33067;49.296;14.470;2023-02-28T03:46:57;18;18;
47079;PMS5003;33067;49.296;14.470;2023-02-28T03:49:22;21;18;
47079;PMS5003;33067;49.296;14.470;2023-02-28T03:51:48;23;18;
47079;PMS5003;33067;49.296;14.470;2023-02-28T03:54:15;26;20;
47079;PMS5003;33067;49.296;14.470;2023-02-28T03:56:40;21;21;
47079;PMS5003;33067;49.296;14.470;2023-02-28T03:59:05;20;20;
47079;PMS5003;33067;49.296;14.470;2023-02-28T04:01:31;20;18;
47079;PMS5003;33067;49.296;14.470;2023-02-28T04:03:55;24;21;
47079;PMS5003;33067;49.296;14.470;2023-02-28T04:06:22;20;16;
47079;PMS5003;33067;49.296;14.470;2023-02-28T04:08:47;18;18;
47079;PMS5003;33067;49.296;14.470;2023-02-28T04:11:16;24;20;
47079;PMS5003;33067;49.296;14.470;2023-02-28T04:13:37;25;20;
47079;PMS5003;33067;49.296;14.470;2023-02-28T04:16:06;24;22;
47079;PMS5003;33067;49.296;14.470;2023-02-28T04:18:29;22;18;
47079;PMS5003;33067;49.296;14.470;2023-02-28T04:20:54;25;24;
47079;PMS5003;33067;49.296;14.470;2023-02-28T04:23:19;30;22;
47079;PMS5003;33067;49.296;14.470;2023-02-28T04:25:45;28;24;
47079;PMS5003;33067;49.296;14.470;2023-02-28T04:28:10;18;18;
47079;PMS5003;33067;49.296;14.470;2023-02-28T04:30:37;29;25;
47079;PMS5003;33067;49.296;14.470;2023-02-28T04:33:01;24;23;
47079;PMS5003;33067;49.296;14.470;2023-02-28T04:35:27;20;18;
47079;PMS5003;33067;49.296;14.470;2023-02-28T04:37:52;19;19;
47079;PMS5003;33067;49.296;14.470;2023-02-28T04:40:18;21;21;
47079;PMS5003;33067;49.296;14.470;2023-02-28T04:42:44;25;20;
47079;PMS5003;33067;49.296;14.470;2023-02-28T04:45:09;28;28;
47079;PMS5003;33067;49.296;14.470;2023-02-28T04:47:34;23;23;
47079;PMS5003;33067;49.296;14.470;2023-02-28T04:50:00;24;24;
47079;PMS5003;33067;49.296;14.470;2023-02-28T04:52:27;22;22;
47079;PMS5003;33067;49.296;14.470;2023-02-28T04:54:51;25;24;
47079;PMS5003;33067;49.296;14.470;2023-02-28T04:57:17;24;20;
47079;PMS5003;33067;49.296;14.470;2023-02-28T04:59:43;32;25;
47079;PMS5003;33067;49.296;14.470;2023-02-28T05:02:08;28;24;
47079;PMS5003;33067;49.296;14.470;2023-02-28T05:04:34;20;20;
47079;PMS5003;33067;49.296;14.470;2023-02-28T05:07:00;31;27;
47079;PMS5003;33067;49.296;14.470;2023-02-28T05:09:25;26;22;
47079;PMS5003;33067;49.296;14.470;2023-02-28T05:11:51;23;20;
47079;PMS5003;33067;49.296;14.470;2023-02-28T05:14:16;27;25;
47079;PMS5003;33067;49.296;14.470;2023-02-28T05:16:41;35;29;
47079;PMS5003;33067;49.296;14.470;2023-02-28T05:19:06;34;28;
47079;PMS5003;33067;49.296;14.470;2023-02-28T05:21:33;27;23;
47079;PMS5003;33067;49.296;14.470;2023-02-28T05:24:00;30;26;
47079;PMS5003;33067;49.296;14.470;2023-02-28T05:26:23;23;21;
47079;PMS5003;33067;49.296;14.470;2023-02-28T05:28:48;24;21;
47079;PMS5003;33067;49.296;14.470;2023-02-28T05:31:14;29;28;
47079;PMS5003;33067;49.296;14.470;2023-02-28T05:33:39;30;22;
47079;PMS5003;33067;49.296;14.470;2023-02-28T05:36:05;37;31;
47079;PMS5003;33067;49.296;14.470;2023-02-28T05:38:30;28;25;
47079;PMS5003;33067;49.296;14.470;2023-02-28T05:40:55;28;25;
47079;PMS5003;33067;49.296;14.470;2023-02-28T05:43:21;32;26;
47079;PMS5003;33067;49.296;14.470;2023-02-28T05:45:46;25;21;
47079;PMS5003;33067;49.296;14.470;2023-02-28T05:48:12;18;17;
47079;PMS5003;33067;49.296;14.470;2023-02-28T05:50:38;22;22;
47079;PMS5003;33067;49.296;14.470;2023-02-28T05:53:03;28;24;
47079;PMS5003;33067;49.296;14.470;2023-02-28T05:55:29;26;22;
47079;PMS5003;33067;49.296;14.470;2023-02-28T05:57:55;28;26;
47079;PMS5003;33067;49.296;14.470;2023-02-28T06:00:20;28;22;
47079;PMS5003;33067;49.296;14.470;2023-02-28T06:02:45;24;22;
47079;PMS5003;33067;49.296;14.470;2023-02-28T06:05:12;24;22;
47079;PMS5003;33067;49.296;14.470;2023-02-28T06:07:37;29;28;
47079;PMS5003;33067;49.296;14.470;2023-02-28T06:10:03;28;24;
47079;PMS5003;33067;49.296;14.470;2023-02-28T06:12:28;23;19;
47079;PMS5003;33067;49.296;14.470;2023-02-28T06:14:53;23;22;
47079;PMS5003;33067;49.296;14.470;2023-02-28T06:17:18;28;26;
47079;PMS5003;33067;49.296;14.470;2023-02-28T06:19:44;19;19;
47079;PMS5003;33067;49.296;14.470;2023-02-28T06:22:09;26;19;
47079;PMS5003;33067;49.296;14.470;2023-02-28T06:24:35;34;26;
47079;PMS5003;33067;49.296;14.470;2023-02-28T06:27:00;30;28;
47079;PMS5003;33067;49.296;14.470;2023-02-28T06:29:25;34;30;
47079;PMS5003;33067;49.296;14.470;2023-02-28T06:31:50;26;26;
47079;PMS5003;33067;49.296;14.470;2023-02-28T06:34:15;26;22;
47079;PMS5003;33067;49.296;14.470;2023-02-28T06:36:41;33;25;
47079;PMS5003;33067;49.296;14.470;2023-02-28T06:39:06;22;22;
47079;PMS5003;33067;49.296;14.470;2023-02-28T06:41:32;29;23;
47079;PMS5003;33067;49.296;14.470;2023-02-28T06:43:57;31;29;
47079;PMS5003;33067;49.296;14.470;2023-02-28T06:46:23;34;33;
47079;PMS5003;33067;49.296;14.470;2023-02-28T06:48:48;23;21;
47079;PMS5003;33067;49.296;14.470;2023-02-28T06:51:15;25;25;
47079;PMS5003;33067;49.296;14.470;2023-02-28T06:53:39;26;26;
47079;PMS5003;33067;49.296;14.470;2023-02-28T06:56:05;31;30;
47079;PMS5003;33067;49.296;14.470;2023-02-28T06:58:30;26;23;
47079;PMS5003;33067;49.296;14.470;2023-02-28T07:00:55;27;23;
47079;PMS5003;33067;49.296;14.470;2023-02-28T07:03:21;34;28;
47079;PMS5003;33067;49.296;14.470;2023-02-28T07:05:46;30;28;
47079;PMS5003;33067;49.296;14.470;2023-02-28T07:08:12;31;26;
47079;PMS5003;33067;49.296;14.470;2023-02-28T07:10:37;28;24;
47079;PMS5003;33067;49.296;14.470;2023-02-28T07:13:03;24;22;
47079;PMS5003;33067;49.296;14.470;2023-02-28T07:15:28;28;27;
47079;PMS5003;33067;49.296;14.470;2023-02-28T07:17:53;27;27;
47079;PMS5003;33067;49.296;14.470;2023-02-28T07:20:18;24;22;
47079;PMS5003;33067;49.296;14.470;2023-02-28T07:22:44;28;27;
47079;PMS5003;33067;49.296;14.470;2023-02-28T07:25:09;32;31;
47079;PMS5003;33067;49.296;14.470;2023-02-28T07:27:35;24;24;
47079;PMS5003;33067;49.296;14.470;2023-02-28T07:30:00;32;32;
47079;PMS5003;33067;49.296;14.470;2023-02-28T07:32:26;35;26;
47079;PMS5003;33067;49.296;14.470;2023-02-28T07:34:51;43;37;
47079;PMS5003;33067;49.296;14.470;2023-02-28T07:37:16;31;27;
47079;PMS5003;33067;49.296;14.470;2023-02-28T07:39:42;27;27;
47079;PMS5003;33067;49.296;14.470;2023-02-28T07:42:07;28;23;
47079;PMS5003;33067;49.296;14.470;2023-02-28T07:44:32;27;25;
47079;PMS5003;33067;49.296;14.470;2023-02-28T07:46:57;34;32;
47079;PMS5003;33067;49.296;14.470;2023-02-28T07:49:23;38;34;
47079;PMS5003;33067;49.296;14.470;2023-02-28T07:51:48;28;24;
47079;PMS5003;33067;49.296;14.470;2023-02-28T07:54:14;33;28;
47079;PMS5003;33067;49.296;14.470;2023-02-28T07:56:39;37;33;
47079;PMS5003;33067;49.296;14.470;2023-02-28T07:59:05;25;20;
47079;PMS5003;33067;49.296;14.470;2023-02-28T08:01:30;36;31;
47079;PMS5003;33067;49.296;14.470;2023-02-28T08:03:56;33;32;
47079;PMS5003;33067;49.296;14.470;2023-02-28T08:06:22;37;35;
47079;PMS5003;33067;49.296;14.470;2023-02-28T08:08:47;25;25;
47079;PMS5003;33067;49.296;14.470;2023-02-28T08:11:12;27;27;
47079;PMS5003;33067;49.296;14.470;2023-02-28T08:13:37;32;24;
47079;PMS5003;33067;49.296;14.470;2023-02-28T08:16:03;33;33;
47079;PMS5003;33067;49.296;14.470;2023-02-28T08:18:27;37;31;
47079;PMS5003;33067;49.296;14.470;2023-02-28T08:20:53;30;28;
47079;PMS5003;33067;49.296;14.470;2023-02-28T08:23:18;37;30;
47079;PMS5003;33067;49.296;14.470;2023-02-28T08:25:44;34;32;
47079;PMS5003;33067;49.296;14.470;2023-02-28T08:28:09;37;36;
47079;PMS5003;33067;49.296;14.470;2023-02-28T08:30:35;32;30;
47079;PMS5003;33067;49.296;14.470;2023-02-28T08:33:00;40;33;
47079;PMS5003;33067;49.296;14.470;2023-02-28T08:35:26;39;36;
47079;PMS5003;33067;49.296;14.470;2023-02-28T08:37:52;33;31;
47079;PMS5003;33067;49.296;14.470;2023-02-28T08:40:17;33;32;
47079;PMS5003;33067;49.296;14.470;2023-02-28T08:42:43;41;40;
47079;PMS5003;33067;49.296;14.470;2023-02-28T08:45:08;38;37;
47079;PMS5003;33067;49.296;14.470;2023-02-28T08:47:34;43;41;
47079;PMS5003;33067;49.296;14.470;2023-02-28T08:49:59;37;34;
47079;PMS5003;33067;49.296;14.470;2023-02-28T08:52:25;33;30;
47079;PMS5003;33067;49.296;14.470;2023-02-28T08:54:51;45;35;
47079;PMS5003;33067;49.296;14.470;2023-02-28T08:57:16;36;33;
47079;PMS5003;33067;49.296;14.470;2023-02-28T08:59:41;33;28;
47079;PMS5003;33067;49.296;14.470;2023-02-28T09:02:08;32;32;
47079;PMS5003;33067;49.296;14.470;2023-02-28T09:04:33;42;37;
47079;PMS5003;33067;49.296;14.470;2023-02-28T09:06:58;30;28;
47079;PMS5003;33067;49.296;14.470;2023-02-28T09:09:24;37;30;
47079;PMS5003;33067;49.296;14.470;2023-02-28T09:11:49;46;39;
47079;PMS5003;33067;49.296;14.470;2023-02-28T09:14:14;35;31;
47079;PMS5003;33067;49.296;14.470;2023-02-28T09:16:40;38;30;
47079;PMS5003;33067;49.296;14.470;2023-02-28T09:19:04;35;32;
47079;PMS5003;33067;49.296;14.470;2023-02-28T09:21:30;49;40;
47079;PMS5003;33067;49.296;14.470;2023-02-28T09:23:56;32;29;
47079;PMS5003;33067;49.296;14.470;2023-02-28T09:26:22;46;41;
47079;PMS5003;33067;49.296;14.470;2023-02-28T09:28:47;38;33;
47079;PMS5003;33067;49.296;14.470;2023-02-28T09:31:14;42;35;
47079;PMS5003;33067;49.296;14.470;2023-02-28T09:33:38;42;34;
47079;PMS5003;33067;49.296;14.470;2023-02-28T09:36:03;30;30;
47079;PMS5003;33067;49.296;14.470;2023-02-28T09:38:29;35;35;
47079;PMS5003;33067;49.296;14.470;2023-02-28T09:40:55;34;30;
47079;PMS5003;33067;49.296;14.470;2023-02-28T09:43:20;47;37;
47079;PMS5003;33067;49.296;14.470;2023-02-28T09:45:46;41;30;
47079;PMS5003;33067;49.296;14.470;2023-02-28T09:48:10;38;33;
47079;PMS5003;33067;49.296;14.470;2023-02-28T09:50:36;45;41;
47079;PMS5003;33067;49.296;14.470;2023-02-28T09:53:02;39;31;
47079;PMS5003;33067;49.296;14.470;2023-02-28T09:55:28;35;33;
47079;PMS5003;33067;49.296;14.470;2023-02-28T09:57:51;33;31;
47079;PMS5003;33067;49.296;14.470;2023-02-28T10:00:18;36;34;
47079;PMS5003;33067;49.296;14.470;2023-02-28T10:05:08;39;34;
47079;PMS5003;33067;49.296;14.470;2023-02-28T10:07:37;32;31;
47079;PMS5003;33067;49.296;14.470;2023-02-28T10:09:59;42;41;
47079;PMS5003;33067;49.296;14.470;2023-02-28T10:12:24;36;33;
47079;PMS5003;33067;49.296;14.470;2023-02-28T10:14:50;30;27;
47079;PMS5003;33067;49.296;14.470;2023-02-28T10:17:16;37;33;
47079;PMS5003;33067;49.296;14.470;2023-02-28T10:19:40;43;35;
47079;PMS5003;33067;49.296;14.470;2023-02-28T10:22:08;41;35;
47079;PMS5003;33067;49.296;14.470;2023-02-28T10:24:32;42;40;
47079;PMS5003;33067;49.296;14.470;2023-02-28T10:26:58;32;32;
47079;PMS5003;33067;49.296;14.470;2023-02-28T10:29:21;44;35;
47079;PMS5003;33067;49.296;14.470;2023-02-28T10:31:47;39;34;
47079;PMS5003;33067;49.296;14.470;2023-02-28T10:34:12;46;37;
47079;PMS5003;33067;49.296;14.470;2023-02-28T10:36:37;44;37;
47079;PMS5003;33067;49.296;14.470;2023-02-28T10:39:16;45;35;
47079;PMS5003;33067;49.296;14.470;2023-02-28T10:41:29;36;35;
47079;PMS5003;33067;49.296;14.470;2023-02-28T10:43:53;36;35;
47079;PMS5003;33067;49.296;14.470;2023-02-28T10:46:19;34;34;
47079;PMS5003;33067;49.296;14.470;2023-02-28T10:48:44;41;36;
47079;PMS5003;33067;49.296;14.470;2023-02-28T10:51:11;40;40;
47079;PMS5003;33067;49.296;14.470;2023-02-28T10:53:37;37;32;
47079;PMS5003;33067;49.296;14.470;2023-02-28T10:56:02;45;39;
47079;PMS5003;33067;49.296;14.470;2023-02-28T10:58:27;40;38;
47079;PMS5003;33067;49.296;14.470;2023-02-28T11:00:51;46;45;
47079;PMS5003;33067;49.296;14.470;2023-02-28T11:03:23;40;37;
47079;PMS5003;33067;49.296;14.470;2023-02-28T11:05:41;40;35;
47079;PMS5003;33067;49.296;14.470;2023-02-28T11:08:10;42;37;
47079;PMS5003;33067;49.296;14.470;2023-02-28T11:10:32;45;44;
47079;PMS5003;33067;49.296;14.470;2023-02-28T11:12:57;52;42;
47079;PMS5003;33067;49.296;14.470;2023-02-28T11:15:24;45;41;
47079;PMS5003;33067;49.296;14.470;2023-02-28T11:17:53;53;45;
47079;PMS5003;33067;49.296;14.470;2023-02-28T11:20:18;42;36;
47079;PMS5003;33067;49.296;14.470;2023-02-28T11:22:42;42;39;
47079;PMS5003;33067;49.296;14.470;2023-02-28T11:25:07;52;45;
47079;PMS5003;33067;49.296;14.470;2023-02-28T11:29:56;42;39;
47079;PMS5003;33067;49.296;14.470;2023-02-28T11:32:22;57;46;
47079;PMS5003;33067;49.296;14.470;2023-02-28T11:34:58;56;46;
47079;PMS5003;33067;49.296;14.470;2023-02-28T11:37:13;50;44;
47079;PMS5003;33067;49.296;14.470;2023-02-28T11:39:37;44;38;
47079;PMS5003;33067;49.296;14.470;2023-02-28T11:42:10;44;40;
47079;PMS5003;33067;49.296;14.470;2023-02-28T11:44:31;45;39;
47079;PMS5003;33067;49.296;14.470;2023-02-28T11:46:54;44;39;
47079;PMS5003;33067;49.296;14.470;2023-02-28T11:49:23;45;41;
47079;PMS5003;33067;49.296;14.470;2023-02-28T11:51:47;44;35;
47079;PMS5003;33067;49.296;14.470;2023-02-28T11:54:16;44;42;
47079;PMS5003;33067;49.296;14.470;2023-02-28T11:56:36;40;40;
47079;PMS5003;33067;49.296;14.470;2023-02-28T11:59:03;38;36;
47079;PMS5003;33067;49.296;14.470;2023-02-28T12:01:28;47;40;
47079;PMS5003;33067;49.296;14.470;2023-02-28T12:03:56;49;41;
47079;PMS5003;33067;49.296;14.470;2023-02-28T12:06:19;49;45;
47079;PMS5003;33067;49.296;14.470;2023-02-28T12:08:49;50;39;
47079;PMS5003;33067;49.296;14.470;2023-02-28T12:11:09;40;35;
47079;PMS5003;33067;49.296;14.470;2023-02-28T12:13:36;42;37;
47079;PMS5003;33067;49.296;14.470;2023-02-28T12:16:01;45;41;
47079;PMS5003;33067;49.296;14.470;2023-02-28T12:18:27;46;40;
47079;PMS5003;33067;49.296;14.470;2023-02-28T12:20:51;43;40;
47079;PMS5003;33067;49.296;14.470;2023-02-28T12:23:21;42;40;
47079;PMS5003;33067;49.296;14.470;2023-02-28T12:25:46;47;39;
47079;PMS5003;33067;49.296;14.470;2023-02-28T12:28:06;45;44;
47079;PMS5003;33067;49.296;14.470;2023-02-28T12:30:32;45;38;
47079;PMS5003;33067;49.296;14.470;2023-02-28T12:32:57;43;38;
47079;PMS5003;33067;49.296;14.470;2023-02-28T12:35:23;42;38;
47079;PMS5003;33067;49.296;14.470;2023-02-28T12:37:49;42;39;
47079;PMS5003;33067;49.296;14.470;2023-02-28T12:40:15;33;32;
47079;PMS5003;33067;49.296;14.470;2023-02-28T12:42:39;45;41;
47079;PMS5003;33067;49.296;14.470;2023-02-28T12:45:04;50;46;
47079;PMS5003;33067;49.296;14.470;2023-02-28T12:47:29;42;40;
47079;PMS5003;33067;49.296;14.470;2023-02-28T12:49:56;43;38;
47079;PMS5003;33067;49.296;14.470;2023-02-28T12:52:20;37;35;
47079;PMS5003;33067;49.296;14.470;2023-02-28T12:54:47;42;40;
47079;PMS5003;33067;49.296;14.470;2023-02-28T12:57:12;42;39;
47079;PMS5003;33067;49.296;14.470;2023-02-28T12:59:38;45;37;
47079;PMS5003;33067;49.296;14.470;2023-02-28T13:06:57;52;41;
47079;PMS5003;33067;49.296;14.470;2023-02-28T13:09:17;42;38;
47079;PMS5003;33067;49.296;14.470;2023-02-28T13:11:43;55;47;
47079;PMS5003;33067;49.296;14.470;2023-02-28T13:21:24;46;42;
47079;PMS5003;33067;49.296;14.470;2023-02-28T13:23:57;51;48;
47079;PMS5003;33067;49.296;14.470;2023-02-28T13:26:15;51;48;
47079;PMS5003;33067;49.296;14.470;2023-02-28T13:31:05;48;43;
47079;PMS5003;33067;49.296;14.470;2023-02-28T13:33:32;45;37;
47079;PMS5003;33067;49.296;14.470;2023-02-28T13:38:24;43;41;
47079;PMS5003;33067;49.296;14.470;2023-02-28T13:40:47;44;39;
47079;PMS5003;33067;49.296;14.470;2023-02-28T13:43:13;43;43;
47079;PMS5003;33067;49.296;14.470;2023-02-28T13:45:39;52;43;
47079;PMS5003;33067;49.296;14.470;2023-02-28T13:48:14;40;38;
47079;PMS5003;33067;49.296;14.470;2023-02-28T13:50:32;39;33;
47079;PMS5003;33067;49.296;14.470;2023-02-28T13:53:00;43;38;
47079;PMS5003;33067;49.296;14.470;2023-02-28T13:55:25;47;40;
47079;PMS5003;33067;49.296;14.470;2023-02-28T13:57:52;46;42;
47079;PMS5003;33067;49.296;14.470;2023-02-28T14:00:16;43;41;
47079;PMS5003;33067;49.296;14.470;2023-02-28T14:02:43;47;44;
47079;PMS5003;33067;49.296;14.470;2023-02-28T14:05:05;47;45;
47079;PMS5003;33067;49.296;14.470;2023-02-28T14:07:30;48;44;
47079;PMS5003;33067;49.296;14.470;2023-02-28T14:09:56;42;39;
47079;PMS5003;33067;49.296;14.470;2023-02-28T14:14:54;40;37;
47079;PMS5003;33067;49.296;14.470;2023-02-28T14:17:12;44;40;
47079;PMS5003;33067;49.296;14.470;2023-02-28T14:19:36;50;45;
47079;PMS5003;33067;49.296;14.470;2023-02-28T14:22:02;44;39;
47079;PMS5003;33067;49.296;14.470;2023-02-28T14:24:31;58;53;
47079;PMS5003;33067;49.296;14.470;2023-02-28T14:26:56;57;53;
47079;PMS5003;33067;49.296;14.470;2023-02-28T14:29:22;48;45;
47079;PMS5003;33067;49.296;14.470;2023-02-28T14:31:44;52;46;
47079;PMS5003;33067;49.296;14.470;2023-02-28T14:34:16;49;46;
47079;PMS5003;33067;49.296;14.470;2023-02-28T14:36:35;44;39;
47079;PMS5003;33067;49.296;14.470;2023-02-28T14:39:01;50;46;
47079;PMS5003;33067;49.296;14.470;2023-02-28T14:41:29;44;43;
47079;PMS5003;33067;49.296;14.470;2023-02-28T14:43:53;44;43;
47079;PMS5003;33067;49.296;14.470;2023-02-28T14:46:17;47;44;
47079;PMS5003;33067;49.296;14.470;2023-02-28T14:48:44;43;39;
47079;PMS5003;33067;49.296;14.470;2023-02-28T14:51:08;49;43;
47079;PMS5003;33067;49.296;14.470;2023-02-28T14:53:35;45;40;
47079;PMS5003;33067;49.296;14.470;2023-02-28T14:55:59;48;45;
47079;PMS5003;33067;49.296;14.470;2023-02-28T14:58:26;48;44;
47079;PMS5003;33067;49.296;14.470;2023-02-28T15:00:51;52;47;
47079;PMS5003;33067;49.296;14.470;2023-02-28T15:03:18;50;45;
47079;PMS5003;33067;49.296;14.470;2023-02-28T15:05:41;45;44;
47079;PMS5003;33067;49.296;14.470;2023-02-28T15:08:11;51;46;
47079;PMS5003;33067;49.296;14.470;2023-02-28T15:10:31;44;41;
47079;PMS5003;33067;49.296;14.470;2023-02-28T15:12:57;55;47;
47079;PMS5003;33067;49.296;14.470;2023-02-28T15:15:22;42;38;
47079;PMS5003;33067;49.296;14.470;2023-02-28T15:17:49;50;44;
47079;PMS5003;33067;49.296;14.470;2023-02-28T15:20:14;54;48;
47079;PMS5003;33067;49.296;14.470;2023-02-28T15:22:39;49;42;
47079;PMS5003;33067;49.296;14.470;2023-02-28T15:25:05;54;48;
47079;PMS5003;33067;49.296;14.470;2023-02-28T15:27:30;51;44;
47079;PMS5003;33067;49.296;14.470;2023-02-28T15:29:56;51;48;
47079;PMS5003;33067;49.296;14.470;2023-02-28T15:32:24;51;43;
47079;PMS5003;33067;49.296;14.470;2023-02-28T15:34:47;52;47;
47079;PMS5003;33067;49.296;14.470;2023-02-28T15:39:41;40;40;
47079;PMS5003;33067;49.296;14.470;2023-02-28T15:42:09;57;45;
47079;PMS5003;33067;49.296;14.470;2023-02-28T15:44:30;45;42;
47079;PMS5003;33067;49.296;14.470;2023-02-28T15:46:54;51;49;
47079;PMS5003;33067;49.296;14.470;2023-02-28T15:49:21;49;43;
47079;PMS5003;33067;49.296;14.470;2023-02-28T15:51:45;53;50;
47079;PMS5003;33067;49.296;14.470;2023-02-28T15:54:12;45;44;
47079;PMS5003;33067;49.296;14.470;2023-02-28T15:56:35;45;42;
47079;PMS5003;33067;49.296;14.470;2023-02-28T15:59:01;35;35;
47079;PMS5003;33067;49.296;14.470;2023-02-28T16:01:27;43;39;
47079;PMS5003;33067;49.296;14.470;2023-02-28T16:03:53;43;40;
47079;PMS5003;33067;49.296;14.470;2023-02-28T16:06:26;50;49;
47079;PMS5003;33067;49.296;14.470;2023-02-28T16:08:42;56;50;
47079;PMS5003;33067;49.296;14.470;2023-02-28T16:11:08;42;39;
47079;PMS5003;33067;49.296;14.470;2023-02-28T16:13:32;43;43;
47079;PMS5003;33067;49.296;14.470;2023-02-28T16:15:58;60;54;
47079;PMS5003;33067;49.296;14.470;2023-02-28T16:18:23;65;58;
47079;PMS5003;33067;49.296;14.470;2023-02-28T16:20:48;49;41;
47079;PMS5003;33067;49.296;14.470;2023-02-28T16:23:14;58;52;